sensor_id;sensor_type;location;lat;lon;timestamp;pressure;altitude;pressure_sealevel;temperature;humidity
11542;BME280;5827;49.482;7.716;2022-07-06T00:01:37;99553.44;;;20.44;59.72
11542;BME280;5827;49.482;7.716;2022-07-06T00:03:39;99548.50;;;20.46;59.58
11542;BME280;5827;49.482;7.716;2022-07-06T00:05:41;99555.84;;;20.46;59.86
11542;BME280;5827;49.482;7.716;2022-07-06T00:07:43;99556.47;;;20.38;60.17
11542;BME280;5827;49.482;7.716;2022-07-06T00:09:44;99557.69;;;20.26;60.22
11542;BME280;5827;49.482;7.716;2022-07-06T00:11:46;99557.16;;;20.24;60.19
11542;BME280;5827;49.482;7.716;2022-07-06T00:13:49;99558.38;;;20.13;60.93
11542;BME280;5827;49.482;7.716;2022-07-06T00:15:50;99558.94;;;20.10;61.32
11542;BME280;5827;49.482;7.716;2022-07-06T00:17:52;99555.81;;;19.98;61.79
11542;BME280;5827;49.482;7.716;2022-07-06T00:19:53;99562.41;;;19.87;62.07
11542;BME280;5827;49.482;7.716;2022-07-06T00:21:55;99554.22;;;19.92;61.98
11542;BME280;5827;49.482;7.716;2022-07-06T00:23:56;99561.03;;;19.89;62.14
11542;BME280;5827;49.482;7.716;2022-07-06T00:25:58;99558.31;;;19.89;62.05
11542;BME280;5827;49.482;7.716;2022-07-06T00:27:59;99553.53;;;20.05;61.84
11542;BME280;5827;49.482;7.716;2022-07-06T00:30:02;99560.03;;;20.09;61.80
11542;BME280;5827;49.482;7.716;2022-07-06T00:32:04;99557.13;;;20.00;61.94
11542;BME280;5827;49.482;7.716;2022-07-06T00:34:06;99555.97;;;20.06;61.62
11542;BME280;5827;49.482;7.716;2022-07-06T00:36:08;99561.31;;;19.88;61.97
11542;BME280;5827;49.482;7.716;2022-07-06T00:38:09;99558.53;;;19.98;61.98
11542;BME280;5827;49.482;7.716;2022-07-06T00:40:11;99568.91;;;19.91;62.19
11542;BME280;5827;49.482;7.716;2022-07-06T00:42:13;99557.88;;;20.06;62.08
11542;BME280;5827;49.482;7.716;2022-07-06T00:44:14;99565.91;;;19.92;62.21
11542;BME280;5827;49.482;7.716;2022-07-06T00:46:18;99568.09;;;19.90;62.21
11542;BME280;5827;49.482;7.716;2022-07-06T00:48:19;99563.06;;;19.73;62.50
11542;BME280;5827;49.482;7.716;2022-07-06T00:50:21;99562.97;;;19.84;62.32
11542;BME280;5827;49.482;7.716;2022-07-06T00:52:23;99564.06;;;19.83;61.82
11542;BME280;5827;49.482;7.716;2022-07-06T00:54:25;99561.25;;;19.93;61.79
11542;BME280;5827;49.482;7.716;2022-07-06T00:56:28;99566.16;;;19.96;61.47
11542;BME280;5827;49.482;7.716;2022-07-06T00:58:30;99560.84;;;19.80;61.49
11542;BME280;5827;49.482;7.716;2022-07-06T01:00:32;99558.84;;;19.91;61.37
11542;BME280;5827;49.482;7.716;2022-07-06T01:02:36;99556.41;;;19.90;61.61
11542;BME280;5827;49.482;7.716;2022-07-06T01:04:37;99555.91;;;19.83;61.23
11542;BME280;5827;49.482;7.716;2022-07-06T01:06:39;99554.63;;;19.75;61.63
11542;BME280;5827;49.482;7.716;2022-07-06T01:08:41;99550.06;;;19.65;61.99
11542;BME280;5827;49.482;7.716;2022-07-06T01:10:42;99551.47;;;19.63;61.66
11542;BME280;5827;49.482;7.716;2022-07-06T01:12:45;99554.44;;;19.66;61.73
11542;BME280;5827;49.482;7.716;2022-07-06T01:14:48;99555.28;;;19.57;61.75
11542;BME280;5827;49.482;7.716;2022-07-06T01:16:50;99551.47;;;19.58;61.56
11542;BME280;5827;49.482;7.716;2022-07-06T01:18:53;99550.38;;;19.64;61.67
11542;BME280;5827;49.482;7.716;2022-07-06T01:21:07;99550.38;;;19.59;61.46
11542;BME280;5827;49.482;7.716;2022-07-06T01:23:09;99558.81;;;19.62;61.42
11542;BME280;5827;49.482;7.716;2022-07-06T01:25:10;99544.66;;;19.60;61.55
11542;BME280;5827;49.482;7.716;2022-07-06T01:27:12;99550.97;;;19.50;61.74
11542;BME280;5827;49.482;7.716;2022-07-06T01:29:14;99546.97;;;19.38;62.20
11542;BME280;5827;49.482;7.716;2022-07-06T01:31:18;99543.41;;;19.47;62.24
11542;BME280;5827;49.482;7.716;2022-07-06T01:33:19;99545.59;;;19.40;62.10
11542;BME280;5827;49.482;7.716;2022-07-06T01:35:22;99542.38;;;19.38;62.75
11542;BME280;5827;49.482;7.716;2022-07-06T01:37:26;99537.25;;;19.32;62.49
11542;BME280;5827;49.482;7.716;2022-07-06T01:39:27;99533.97;;;19.35;63.13
11542;BME280;5827;49.482;7.716;2022-07-06T01:41:29;99542.97;;;19.30;62.68
11542;BME280;5827;49.482;7.716;2022-07-06T01:43:30;99545.31;;;19.42;62.73
11542;BME280;5827;49.482;7.716;2022-07-06T01:45:32;99535.94;;;19.19;63.34
11542;BME280;5827;49.482;7.716;2022-07-06T01:47:33;99538.66;;;19.19;63.29
11542;BME280;5827;49.482;7.716;2022-07-06T01:49:35;99539.19;;;19.26;63.25
11542;BME280;5827;49.482;7.716;2022-07-06T01:51:37;99537.63;;;19.10;62.98
11542;BME280;5827;49.482;7.716;2022-07-06T01:53:39;99538.44;;;19.15;62.89
11542;BME280;5827;49.482;7.716;2022-07-06T01:55:41;99537.91;;;19.13;63.31
11542;BME280;5827;49.482;7.716;2022-07-06T01:57:43;99532.50;;;19.08;63.31
11542;BME280;5827;49.482;7.716;2022-07-06T01:59:44;99536.78;;;19.14;63.25
11542;BME280;5827;49.482;7.716;2022-07-06T02:01:46;99541.16;;;19.10;63.43
11542;BME280;5827;49.482;7.716;2022-07-06T02:03:47;99541.78;;;19.02;63.44
11542;BME280;5827;49.482;7.716;2022-07-06T02:05:49;99540.88;;;19.17;62.75
11542;BME280;5827;49.482;7.716;2022-07-06T02:07:51;99543.56;;;19.22;63.10
11542;BME280;5827;49.482;7.716;2022-07-06T02:09:54;99536.34;;;19.02;63.03
11542;BME280;5827;49.482;7.716;2022-07-06T02:11:56;99542.84;;;19.01;63.41
11542;BME280;5827;49.482;7.716;2022-07-06T02:13:57;99546.13;;;18.98;63.39
11542;BME280;5827;49.482;7.716;2022-07-06T02:15:59;99555.13;;;18.93;64.09
11542;BME280;5827;49.482;7.716;2022-07-06T02:18:01;99554.34;;;18.83;63.84
11542;BME280;5827;49.482;7.716;2022-07-06T02:20:03;99556.22;;;18.92;63.75
11542;BME280;5827;49.482;7.716;2022-07-06T02:22:05;99548.06;;;18.97;63.02
11542;BME280;5827;49.482;7.716;2022-07-06T02:24:06;99549.97;;;18.97;63.21
11542;BME280;5827;49.482;7.716;2022-07-06T02:26:09;99543.44;;;18.93;63.57
11542;BME280;5827;49.482;7.716;2022-07-06T02:28:11;99543.75;;;18.86;63.83
11542;BME280;5827;49.482;7.716;2022-07-06T02:30:12;99549.44;;;18.90;63.60
11542;BME280;5827;49.482;7.716;2022-07-06T02:32:14;99541.28;;;18.90;64.19
11542;BME280;5827;49.482;7.716;2022-07-06T02:34:15;99542.41;;;18.84;63.84
11542;BME280;5827;49.482;7.716;2022-07-06T02:36:17;99542.19;;;18.60;64.32
11542;BME280;5827;49.482;7.716;2022-07-06T02:38:18;99532.97;;;18.61;65.50
11542;BME280;5827;49.482;7.716;2022-07-06T02:40:20;99533.50;;;18.58;65.93
11542;BME280;5827;49.482;7.716;2022-07-06T02:42:23;99539.25;;;18.51;65.36
11542;BME280;5827;49.482;7.716;2022-07-06T02:44:24;99543.31;;;18.48;65.17
11542;BME280;5827;49.482;7.716;2022-07-06T02:46:26;99544.16;;;18.44;65.18
11542;BME280;5827;49.482;7.716;2022-07-06T02:48:27;99537.63;;;18.45;65.71
11542;BME280;5827;49.482;7.716;2022-07-06T02:50:29;99545.25;;;18.43;65.68
11542;BME280;5827;49.482;7.716;2022-07-06T02:52:30;99545.25;;;18.38;66.24
11542;BME280;5827;49.482;7.716;2022-07-06T02:54:32;99544.44;;;18.42;65.84
11542;BME280;5827;49.482;7.716;2022-07-06T02:56:33;99550.44;;;18.29;65.71
11542;BME280;5827;49.482;7.716;2022-07-06T02:58:36;99558.00;;;18.27;66.52
11542;BME280;5827;49.482;7.716;2022-07-06T03:00:37;99562.06;;;18.40;65.72
11542;BME280;5827;49.482;7.716;2022-07-06T03:02:39;99559.06;;;18.41;65.65
11542;BME280;5827;49.482;7.716;2022-07-06T03:04:41;99566.16;;;18.37;65.09
11542;BME280;5827;49.482;7.716;2022-07-06T03:06:42;99567.50;;;18.35;65.49
11542;BME280;5827;49.482;7.716;2022-07-06T03:08:43;99569.16;;;18.25;66.01
11542;BME280;5827;49.482;7.716;2022-07-06T03:10:45;99562.91;;;18.30;66.26
11542;BME280;5827;49.482;7.716;2022-07-06T03:12:46;99575.94;;;18.28;66.26
11542;BME280;5827;49.482;7.716;2022-07-06T03:14:49;99568.88;;;18.27;65.87
11542;BME280;5827;49.482;7.716;2022-07-06T03:16:51;99570.22;;;18.29;65.28
11542;BME280;5827;49.482;7.716;2022-07-06T03:18:52;99579.97;;;18.36;65.37
11542;BME280;5827;49.482;7.716;2022-07-06T03:20:54;99583.25;;;18.27;65.07
11542;BME280;5827;49.482;7.716;2022-07-06T03:22:55;99579.19;;;18.04;66.41
11542;BME280;5827;49.482;7.716;2022-07-06T03:24:57;99580.84;;;17.95;66.87
11542;BME280;5827;49.482;7.716;2022-07-06T03:26:58;99575.16;;;17.92;66.96
11542;BME280;5827;49.482;7.716;2022-07-06T03:29:00;99583.53;;;17.90;66.31
11542;BME280;5827;49.482;7.716;2022-07-06T03:31:03;99579.19;;;17.99;66.52
11542;BME280;5827;49.482;7.716;2022-07-06T03:33:04;99572.69;;;17.90;66.36
11542;BME280;5827;49.482;7.716;2022-07-06T03:35:06;99579.19;;;17.99;65.97
11542;BME280;5827;49.482;7.716;2022-07-06T03:37:08;99574.06;;;18.03;65.79
11542;BME280;5827;49.482;7.716;2022-07-06T03:39:09;99577.84;;;18.02;65.73
11542;BME280;5827;49.482;7.716;2022-07-06T03:41:11;99575.69;;;18.04;66.15
11542;BME280;5827;49.482;7.716;2022-07-06T03:43:12;99581.63;;;18.21;65.67
11542;BME280;5827;49.482;7.716;2022-07-06T03:45:14;99578.94;;;18.06;66.05
11542;BME280;5827;49.482;7.716;2022-07-06T03:47:17;99588.69;;;18.07;65.68
11542;BME280;5827;49.482;7.716;2022-07-06T03:49:18;99586.00;;;18.02;65.51
11542;BME280;5827;49.482;7.716;2022-07-06T03:51:20;99592.75;;;18.04;65.70
11542;BME280;5827;49.482;7.716;2022-07-06T03:53:21;99587.88;;;17.91;65.82
11542;BME280;5827;49.482;7.716;2022-07-06T03:55:23;99593.03;;;18.03;65.32
11542;BME280;5827;49.482;7.716;2022-07-06T03:57:24;99585.44;;;18.10;65.32
11542;BME280;5827;49.482;7.716;2022-07-06T03:59:26;99594.66;;;17.99;65.29
11542;BME280;5827;49.482;7.716;2022-07-06T04:01:28;99593.31;;;18.07;64.69
11542;BME280;5827;49.482;7.716;2022-07-06T04:03:32;99601.44;;;18.12;64.74
11542;BME280;5827;49.482;7.716;2022-07-06T04:05:33;99596.84;;;18.02;65.06
11542;BME280;5827;49.482;7.716;2022-07-06T04:07:35;99597.66;;;18.02;64.92
11542;BME280;5827;49.482;7.716;2022-07-06T04:09:36;99600.34;;;18.08;64.73
11542;BME280;5827;49.482;7.716;2022-07-06T04:11:38;99603.34;;;18.06;64.78
11542;BME280;5827;49.482;7.716;2022-07-06T04:13:39;99605.25;;;18.11;64.43
11542;BME280;5827;49.482;7.716;2022-07-06T04:15:41;99605.78;;;18.02;64.47
11542;BME280;5827;49.482;7.716;2022-07-06T04:17:42;99601.97;;;18.03;64.34
11542;BME280;5827;49.482;7.716;2022-07-06T04:19:54;99601.16;;;18.13;64.92
11542;BME280;5827;49.482;7.716;2022-07-06T04:21:56;99601.97;;;18.19;64.62
11542;BME280;5827;49.482;7.716;2022-07-06T04:23:57;99600.34;;;18.38;64.88
11542;BME280;5827;49.482;7.716;2022-07-06T04:25:59;99603.84;;;18.23;63.92
11542;BME280;5827;49.482;7.716;2022-07-06T04:28:00;99607.09;;;18.36;63.93
11542;BME280;5827;49.482;7.716;2022-07-06T04:30:02;99606.56;;;18.44;63.45
11542;BME280;5827;49.482;7.716;2022-07-06T04:32:04;99606.56;;;18.44;63.33
11542;BME280;5827;49.482;7.716;2022-07-06T04:34:06;99606.00;;;18.52;63.36
11542;BME280;5827;49.482;7.716;2022-07-06T04:36:09;99606.25;;;18.71;62.48
11542;BME280;5827;49.482;7.716;2022-07-06T04:38:10;99610.75;;;19.06;61.98
11542;BME280;5827;49.482;7.716;2022-07-06T04:40:12;99610.31;;;19.38;61.29
11542;BME280;5827;49.482;7.716;2022-07-06T04:42:14;99621.53;;;19.76;59.94
11542;BME280;5827;49.482;7.716;2022-07-06T04:44:16;99628.56;;;20.16;59.08
11542;BME280;5827;49.482;7.716;2022-07-06T04:46:17;99637.59;;;20.41;58.63
11542;BME280;5827;49.482;7.716;2022-07-06T04:48:19;99636.22;;;20.72;57.19
11542;BME280;5827;49.482;7.716;2022-07-06T04:50:21;99641.66;;;20.72;56.89
11542;BME280;5827;49.482;7.716;2022-07-06T04:52:23;99645.13;;;21.02;56.35
11542;BME280;5827;49.482;7.716;2022-07-06T04:54:25;99648.63;;;21.31;54.90
11542;BME280;5827;49.482;7.716;2022-07-06T04:56:27;99654.75;;;21.61;54.71
11542;BME280;5827;49.482;7.716;2022-07-06T04:58:28;99656.31;;;21.86;53.98
11542;BME280;5827;49.482;7.716;2022-07-06T05:00:30;99649.81;;;21.82;53.66
11542;BME280;5827;49.482;7.716;2022-07-06T05:02:31;99651.00;;;21.95;52.48
11542;BME280;5827;49.482;7.716;2022-07-06T05:04:33;99658.34;;;21.75;53.59
11542;BME280;5827;49.482;7.716;2022-07-06T05:06:34;99657.91;;;21.87;53.74
11542;BME280;5827;49.482;7.716;2022-07-06T05:08:37;99655.28;;;21.82;53.33
11542;BME280;5827;49.482;7.716;2022-07-06T05:10:39;99658.47;;;22.22;53.00
11542;BME280;5827;49.482;7.716;2022-07-06T05:12:41;99664.63;;;22.46;52.10
11542;BME280;5827;49.482;7.716;2022-07-06T05:14:42;99668.63;;;22.81;53.13
11542;BME280;5827;49.482;7.716;2022-07-06T05:16:44;99673.75;;;23.02;51.08
11542;BME280;5827;49.482;7.716;2022-07-06T05:18:45;99677.69;;;23.10;51.07
11542;BME280;5827;49.482;7.716;2022-07-06T05:20:47;99678.19;;;23.12;50.37
11542;BME280;5827;49.482;7.716;2022-07-06T05:22:48;99677.06;;;23.13;51.04
11542;BME280;5827;49.482;7.716;2022-07-06T05:24:51;99682.53;;;23.26;50.48
11542;BME280;5827;49.482;7.716;2022-07-06T05:26:52;99681.41;;;23.27;49.52
11542;BME280;5827;49.482;7.716;2022-07-06T05:28:55;99683.84;;;23.29;49.50
11542;BME280;5827;49.482;7.716;2022-07-06T05:30:56;99682.28;;;22.81;49.80
11542;BME280;5827;49.482;7.716;2022-07-06T05:32:58;99679.53;;;23.14;49.45
11542;BME280;5827;49.482;7.716;2022-07-06T05:34:59;99682.00;;;23.66;48.70
11542;BME280;5827;49.482;7.716;2022-07-06T05:37:01;99687.47;;;22.83;48.50
11542;BME280;5827;49.482;7.716;2022-07-06T05:39:02;99693.25;;;23.23;48.60
11542;BME280;5827;49.482;7.716;2022-07-06T05:41:05;99694.84;;;22.36;46.78
11542;BME280;5827;49.482;7.716;2022-07-06T05:43:07;99711.53;;;21.97;47.12
11542;BME280;5827;49.482;7.716;2022-07-06T05:45:08;99702.00;;;21.94;46.83
11542;BME280;5827;49.482;7.716;2022-07-06T05:47:10;99701.72;;;21.77;47.76
11542;BME280;5827;49.482;7.716;2022-07-06T05:49:25;99694.09;;;22.30;47.09
11542;BME280;5827;49.482;7.716;2022-07-06T05:51:45;99690.25;;;20.89;49.29
11542;BME280;5827;49.482;7.716;2022-07-06T05:53:46;99693.72;;;21.43;49.25
11542;BME280;5827;49.482;7.716;2022-07-06T05:55:48;99693.47;;;21.15;48.70
11542;BME280;5827;49.482;7.716;2022-07-06T05:57:51;99694.59;;;20.61;49.07
11542;BME280;5827;49.482;7.716;2022-07-06T05:59:54;99690.88;;;21.05;48.86
11542;BME280;5827;49.482;7.716;2022-07-06T06:01:55;99695.47;;;21.10;48.86
11542;BME280;5827;49.482;7.716;2022-07-06T06:03:56;99707.97;;;21.59;48.01
11542;BME280;5827;49.482;7.716;2022-07-06T06:05:59;99698.28;;;21.23;48.28
11542;BME280;5827;49.482;7.716;2022-07-06T06:08:01;99697.44;;;22.08;48.15
11542;BME280;5827;49.482;7.716;2022-07-06T06:10:05;99707.06;;;22.71;47.39
11542;BME280;5827;49.482;7.716;2022-07-06T06:12:07;99708.25;;;23.39;45.73
11542;BME280;5827;49.482;7.716;2022-07-06T06:14:10;99704.31;;;23.31;45.06
11542;BME280;5827;49.482;7.716;2022-07-06T06:16:11;99714.63;;;22.61;45.59
11542;BME280;5827;49.482;7.716;2022-07-06T06:18:13;99708.38;;;22.60;47.18
11542;BME280;5827;49.482;7.716;2022-07-06T06:20:17;99712.13;;;23.24;45.31
11542;BME280;5827;49.482;7.716;2022-07-06T06:22:18;99720.00;;;23.12;44.27
11542;BME280;5827;49.482;7.716;2022-07-06T06:24:19;99722.34;;;23.32;45.52
11542;BME280;5827;49.482;7.716;2022-07-06T06:26:24;99726.25;;;23.81;44.25
11542;BME280;5827;49.482;7.716;2022-07-06T06:28:25;99724.16;;;24.15;44.75
11542;BME280;5827;49.482;7.716;2022-07-06T06:30:28;99724.13;;;23.92;44.57
11542;BME280;5827;49.482;7.716;2022-07-06T06:32:29;99732.66;;;23.49;43.99
11542;BME280;5827;49.482;7.716;2022-07-06T06:34:31;99727.72;;;23.51;44.59
11542;BME280;5827;49.482;7.716;2022-07-06T06:36:33;99729.91;;;23.63;43.87
11542;BME280;5827;49.482;7.716;2022-07-06T06:38:34;99735.28;;;23.27;44.12
11542;BME280;5827;49.482;7.716;2022-07-06T06:40:36;99726.69;;;23.61;44.18
11542;BME280;5827;49.482;7.716;2022-07-06T06:42:37;99729.72;;;23.46;43.93
11542;BME280;5827;49.482;7.716;2022-07-06T06:44:39;99726.56;;;24.16;45.04
11542;BME280;5827;49.482;7.716;2022-07-06T06:46:42;99739.53;;;24.24;44.02
11542;BME280;5827;49.482;7.716;2022-07-06T06:48:44;99741.59;;;24.64;42.06
11542;BME280;5827;49.482;7.716;2022-07-06T06:50:45;99733.97;;;24.83;42.14
11542;BME280;5827;49.482;7.716;2022-07-06T06:52:47;99741.22;;;25.10;42.16
11542;BME280;5827;49.482;7.716;2022-07-06T06:54:48;99741.31;;;24.65;41.87
11542;BME280;5827;49.482;7.716;2022-07-06T06:56:50;99738.41;;;24.25;43.19
11542;BME280;5827;49.482;7.716;2022-07-06T06:58:51;99736.81;;;23.88;42.74
11542;BME280;5827;49.482;7.716;2022-07-06T07:00:53;99732.72;;;24.58;42.85
11542;BME280;5827;49.482;7.716;2022-07-06T07:02:56;99745.38;;;24.31;41.26
11542;BME280;5827;49.482;7.716;2022-07-06T07:04:58;99740.41;;;24.78;41.83
11542;BME280;5827;49.482;7.716;2022-07-06T07:06:59;99742.25;;;24.02;41.96
11542;BME280;5827;49.482;7.716;2022-07-06T07:09:01;99746.47;;;24.08;41.98
11542;BME280;5827;49.482;7.716;2022-07-06T07:11:02;99748.84;;;24.23;43.07
11542;BME280;5827;49.482;7.716;2022-07-06T07:13:04;99738.34;;;23.39;43.71
11542;BME280;5827;49.482;7.716;2022-07-06T07:15:06;99737.69;;;23.97;43.29
11542;BME280;5827;49.482;7.716;2022-07-06T07:17:08;99743.31;;;23.23;43.86
11542;BME280;5827;49.482;7.716;2022-07-06T07:19:11;99749.06;;;23.63;43.69
11542;BME280;5827;49.482;7.716;2022-07-06T07:21:12;99735.59;;;23.53;43.40
11542;BME280;5827;49.482;7.716;2022-07-06T07:23:14;99748.78;;;23.37;43.25
11542;BME280;5827;49.482;7.716;2022-07-06T07:25:15;99755.66;;;23.62;43.46
11542;BME280;5827;49.482;7.716;2022-07-06T07:27:17;99755.31;;;24.27;43.09
11542;BME280;5827;49.482;7.716;2022-07-06T07:29:18;99747.72;;;24.38;42.32
11542;BME280;5827;49.482;7.716;2022-07-06T07:31:20;99750.69;;;24.14;42.33
11542;BME280;5827;49.482;7.716;2022-07-06T07:33:21;99757.50;;;24.53;41.75
11542;BME280;5827;49.482;7.716;2022-07-06T07:35:24;99748.47;;;24.16;42.36
11542;BME280;5827;49.482;7.716;2022-07-06T07:37:26;99756.56;;;24.21;41.33
11542;BME280;5827;49.482;7.716;2022-07-06T07:39:27;99746.53;;;23.80;43.50
11542;BME280;5827;49.482;7.716;2022-07-06T07:41:28;99744.13;;;24.15;42.38
11542;BME280;5827;49.482;7.716;2022-07-06T07:43:31;99743.66;;;24.80;41.68
11542;BME280;5827;49.482;7.716;2022-07-06T07:45:33;99741.69;;;24.14;41.94
11542;BME280;5827;49.482;7.716;2022-07-06T07:47:34;99742.72;;;24.40;41.54
11542;BME280;5827;49.482;7.716;2022-07-06T07:49:37;99744.91;;;24.74;42.06
11542;BME280;5827;49.482;7.716;2022-07-06T07:51:40;99740.69;;;24.32;42.10
11542;BME280;5827;49.482;7.716;2022-07-06T07:53:41;99743.66;;;24.80;41.63
11542;BME280;5827;49.482;7.716;2022-07-06T07:55:43;99734.13;;;24.55;41.77
11542;BME280;5827;49.482;7.716;2022-07-06T07:57:44;99738.44;;;24.70;41.86
11542;BME280;5827;49.482;7.716;2022-07-06T07:59:46;99744.06;;;25.27;40.84
11542;BME280;5827;49.482;7.716;2022-07-06T08:01:47;99759.75;;;26.10;40.69
11542;BME280;5827;49.482;7.716;2022-07-06T08:03:49;99749.28;;;26.47;40.68
11542;BME280;5827;49.482;7.716;2022-07-06T08:05:50;99754.28;;;26.19;39.52
11542;BME280;5827;49.482;7.716;2022-07-06T08:07:54;99753.75;;;25.82;40.71
11542;BME280;5827;49.482;7.716;2022-07-06T08:09:55;99749.41;;;25.32;41.10
11542;BME280;5827;49.482;7.716;2022-07-06T08:11:57;99756.66;;;24.97;41.02
11542;BME280;5827;49.482;7.716;2022-07-06T08:13:59;99748.94;;;25.39;40.18
11542;BME280;5827;49.482;7.716;2022-07-06T08:16:00;99752.88;;;24.84;40.64
11542;BME280;5827;49.482;7.716;2022-07-06T08:18:02;99751.72;;;25.56;40.64
11542;BME280;5827;49.482;7.716;2022-07-06T08:20:05;99753.81;;;26.17;40.73
11542;BME280;5827;49.482;7.716;2022-07-06T08:22:06;99754.44;;;26.57;39.56
11542;BME280;5827;49.482;7.716;2022-07-06T08:24:09;99754.91;;;25.90;39.37
11542;BME280;5827;49.482;7.716;2022-07-06T08:26:11;99748.94;;;25.96;41.08
11542;BME280;5827;49.482;7.716;2022-07-06T08:28:13;99751.03;;;26.77;38.73
11542;BME280;5827;49.482;7.716;2022-07-06T08:30:14;99767.34;;;26.74;37.28
11542;BME280;5827;49.482;7.716;2022-07-06T08:32:16;99767.13;;;27.05;37.23
11542;BME280;5827;49.482;7.716;2022-07-06T08:34:20;99760.69;;;25.31;39.48
11542;BME280;5827;49.482;7.716;2022-07-06T08:36:21;99753.22;;;25.71;39.02
11542;BME280;5827;49.482;7.716;2022-07-06T08:38:23;99768.03;;;26.27;39.04
11542;BME280;5827;49.482;7.716;2022-07-06T08:40:32;99764.63;;;26.39;38.58
11542;BME280;5827;49.482;7.716;2022-07-06T08:42:35;99765.59;;;26.69;38.26
11542;BME280;5827;49.482;7.716;2022-07-06T08:44:37;99765.56;;;25.43;38.74
11542;BME280;5827;49.482;7.716;2022-07-06T08:46:40;99759.78;;;26.19;38.76
11542;BME280;5827;49.482;7.716;2022-07-06T08:48:41;99764.13;;;26.20;39.09
11542;BME280;5827;49.482;7.716;2022-07-06T08:50:44;99759.09;;;25.96;38.31
11542;BME280;5827;49.482;7.716;2022-07-06T08:52:47;99763.16;;;26.68;38.28
11542;BME280;5827;49.482;7.716;2022-07-06T08:54:49;99765.75;;;26.12;37.73
11542;BME280;5827;49.482;7.716;2022-07-06T08:56:52;99766.41;;;26.09;37.72
11542;BME280;5827;49.482;7.716;2022-07-06T08:58:54;99755.06;;;25.93;39.42
11542;BME280;5827;49.482;7.716;2022-07-06T09:00:56;99755.06;;;25.93;38.68
11542;BME280;5827;49.482;7.716;2022-07-06T09:02:58;99760.88;;;26.70;39.18
11542;BME280;5827;49.482;7.716;2022-07-06T09:05:02;99768.34;;;26.69;36.72
11542;BME280;5827;49.482;7.716;2022-07-06T09:07:04;99767.25;;;26.53;37.79
11542;BME280;5827;49.482;7.716;2022-07-06T09:09:06;99763.34;;;26.63;38.00
11542;BME280;5827;49.482;7.716;2022-07-06T09:11:08;99759.09;;;26.74;37.96
11542;BME280;5827;49.482;7.716;2022-07-06T09:13:10;99769.94;;;26.09;37.31
11542;BME280;5827;49.482;7.716;2022-07-06T09:15:12;99754.59;;;26.52;38.33
11542;BME280;5827;49.482;7.716;2022-07-06T09:17:14;99753.28;;;25.97;37.90
11542;BME280;5827;49.482;7.716;2022-07-06T09:19:16;99745.94;;;25.58;38.69
11542;BME280;5827;49.482;7.716;2022-07-06T09:21:22;99745.94;;;25.58;38.13
11542;BME280;5827;49.482;7.716;2022-07-06T09:23:24;99750.25;;;25.99;38.71
11542;BME280;5827;49.482;7.716;2022-07-06T09:25:27;99762.66;;;25.88;38.29
11542;BME280;5827;49.482;7.716;2022-07-06T09:27:28;99758.94;;;25.92;37.39
11542;BME280;5827;49.482;7.716;2022-07-06T09:29:31;99759.41;;;25.77;37.89
11542;BME280;5827;49.482;7.716;2022-07-06T09:31:33;99763.63;;;26.00;37.58
11542;BME280;5827;49.482;7.716;2022-07-06T09:33:35;99766.72;;;25.50;36.99
11542;BME280;5827;49.482;7.716;2022-07-06T09:35:37;99771.53;;;25.76;37.83
11542;BME280;5827;49.482;7.716;2022-07-06T09:37:39;99766.13;;;25.62;38.14
11542;BME280;5827;49.482;7.716;2022-07-06T09:39:42;99771.63;;;25.22;38.28
11542;BME280;5827;49.482;7.716;2022-07-06T09:41:44;99766.16;;;25.00;38.25
11542;BME280;5827;49.482;7.716;2022-07-06T09:43:47;99763.91;;;24.71;38.10
11542;BME280;5827;49.482;7.716;2022-07-06T09:45:51;99768.03;;;25.53;37.07
11542;BME280;5827;49.482;7.716;2022-07-06T09:47:53;99775.41;;;25.92;37.48
11542;BME280;5827;49.482;7.716;2022-07-06T09:49:55;99778.28;;;25.78;35.87
11542;BME280;5827;49.482;7.716;2022-07-06T09:51:59;99771.34;;;25.32;37.22
11542;BME280;5827;49.482;7.716;2022-07-06T09:54:05;99781.75;;;26.19;37.16
11542;BME280;5827;49.482;7.716;2022-07-06T09:56:06;99775.31;;;26.67;35.96
11542;BME280;5827;49.482;7.716;2022-07-06T09:58:08;99785.97;;;26.59;34.99
11542;BME280;5827;49.482;7.716;2022-07-06T10:00:12;99790.59;;;27.11;35.13
11542;BME280;5827;49.482;7.716;2022-07-06T10:02:15;99785.00;;;26.12;35.21
11542;BME280;5827;49.482;7.716;2022-07-06T10:04:17;99781.44;;;26.03;36.53
11542;BME280;5827;49.482;7.716;2022-07-06T10:06:20;99789.38;;;26.65;35.18
11542;BME280;5827;49.482;7.716;2022-07-06T10:08:22;99783.53;;;26.23;36.07
11542;BME280;5827;49.482;7.716;2022-07-06T10:10:25;99791.13;;;26.78;34.76
11542;BME280;5827;49.482;7.716;2022-07-06T10:12:27;99788.97;;;27.01;36.32
11542;BME280;5827;49.482;7.716;2022-07-06T10:14:30;99798.41;;;26.83;35.55
11542;BME280;5827;49.482;7.716;2022-07-06T10:16:33;99787.47;;;26.48;35.71
11542;BME280;5827;49.482;7.716;2022-07-06T10:18:37;99788.69;;;26.85;36.07
11542;BME280;5827;49.482;7.716;2022-07-06T10:20:39;99781.28;;;26.51;36.12
11542;BME280;5827;49.482;7.716;2022-07-06T10:22:41;99787.09;;;26.32;36.09
11542;BME280;5827;49.482;7.716;2022-07-06T10:24:43;99794.19;;;26.42;35.17
11542;BME280;5827;49.482;7.716;2022-07-06T10:26:45;99789.81;;;26.84;34.69
11542;BME280;5827;49.482;7.716;2022-07-06T10:28:50;99791.00;;;26.57;33.73
11542;BME280;5827;49.482;7.716;2022-07-06T10:30:53;99783.88;;;26.48;35.19
11542;BME280;5827;49.482;7.716;2022-07-06T10:32:56;99776.09;;;26.41;36.33
11542;BME280;5827;49.482;7.716;2022-07-06T10:35:02;99785.94;;;26.85;35.71
11542;BME280;5827;49.482;7.716;2022-07-06T10:37:03;99787.69;;;26.99;34.64
11542;BME280;5827;49.482;7.716;2022-07-06T10:39:08;99791.28;;;26.82;34.33
11542;BME280;5827;49.482;7.716;2022-07-06T10:41:33;99790.16;;;26.14;34.90
11542;BME280;5827;49.482;7.716;2022-07-06T10:43:36;99786.97;;;26.46;34.50
11542;BME280;5827;49.482;7.716;2022-07-06T10:45:50;99786.75;;;26.86;34.59
11542;BME280;5827;49.482;7.716;2022-07-06T10:48:17;99796.78;;;26.82;33.10
11542;BME280;5827;49.482;7.716;2022-07-06T10:50:20;99793.22;;;27.46;33.30
11542;BME280;5827;49.482;7.716;2022-07-06T10:52:21;99787.53;;;26.95;34.05
11542;BME280;5827;49.482;7.716;2022-07-06T10:54:23;99788.31;;;27.04;34.96
11542;BME280;5827;49.482;7.716;2022-07-06T10:56:31;99791.59;;;26.89;34.00